createdAt,value
2018-03-31T00:01:15.962Z,70.50
2018-03-31T00:03:42.957Z,71.26
2018-03-31T00:06:09.961Z,71.36
2018-03-31T00:08:37.278Z,71.50
2018-03-31T00:11:04.281Z,71.38
2018-03-31T00:13:31.319Z,70.86
2018-03-31T00:15:58.506Z,71.25
2018-03-31T00:18:25.510Z,71.90
2018-03-31T00:20:52.517Z,72.14
2018-03-31T00:23:19.841Z,72.22
2018-03-31T00:25:46.843Z,71.78
2018-03-31T00:28:13.860Z,72.78
2018-03-31T00:30:40.854Z,72.67
2018-03-31T00:33:07.856Z,72.97
2018-03-31T00:35:35.007Z,72.91
2018-03-31T00:38:02.014Z,72.94
2018-03-31T00:40:29.022Z,73.29
2018-03-31T00:42:56.337Z,72.82
2018-03-31T00:45:23.346Z,72.68
2018-03-31T00:47:50.361Z,72.67
2018-03-31T00:50:17.466Z,73.37
2018-03-31T00:52:44.476Z,73.34
2018-03-31T00:55:11.484Z,73.64
2018-03-31T00:57:38.567Z,73.47
2018-03-31T01:00:05.574Z,73.26
2018-03-31T01:02:32.578Z,73.57
2018-03-31T01:04:59.754Z,73.67
2018-03-31T01:07:26.772Z,73.69
2018-03-31T01:09:53.766Z,73.84
2018-03-31T01:12:20.822Z,74.38
2018-03-31T01:14:47.839Z,74.24
2018-03-31T01:17:14.843Z,73.99
2018-03-31T01:19:41.882Z,73.98
2018-03-31T01:22:08.886Z,73.82
2018-03-31T01:24:35.921Z,73.48
2018-03-31T01:27:02.955Z,73.25
2018-03-31T01:29:29.949Z,73.05
2018-03-31T01:31:56.954Z,73.11
2018-03-31T01:34:24.005Z,73.01
2018-03-31T01:36:51.011Z,73.05
2018-03-31T01:39:18.010Z,73.48
2018-03-31T01:41:45.050Z,74.21
2018-03-31T01:44:12.062Z,74.36
2018-03-31T01:46:39.078Z,74.96
2018-03-31T01:49:06.114Z,74.99
2018-03-31T01:51:33.110Z,74.92
2018-03-31T01:54:00.111Z,75.03
2018-03-31T01:56:27.259Z,75.15
2018-03-31T01:58:54.262Z,75.16
2018-03-31T02:01:21.256Z,75.29
2018-03-31T02:03:48.304Z,75.66
2018-03-31T02:06:15.302Z,75.67
2018-03-31T02:08:42.370Z,75.99
2018-03-31T02:11:09.413Z,75.80
2018-03-31T02:13:36.413Z,76.38
2018-03-31T02:16:03.422Z,76.09
2018-03-31T02:18:30.467Z,76.20
2018-03-31T02:20:57.476Z,75.85
2018-03-31T02:23:24.473Z,76.00
2018-03-31T02:25:51.560Z,75.74
2018-03-31T02:28:18.561Z,75.44
2018-03-31T02:30:45.567Z,75.69
2018-03-31T02:33:12.758Z,76.46
2018-03-31T02:35:39.770Z,76.33
2018-03-31T02:38:06.766Z,76.41
2018-03-31T02:40:33.919Z,76.18
2018-03-31T02:43:00.922Z,76.72
2018-03-31T02:45:27.936Z,76.58
2018-03-31T02:47:54.980Z,76.68
2018-03-31T02:50:21.982Z,77.10
2018-03-31T02:52:49.926Z,77.00
2018-03-31T02:55:17.101Z,76.96
2018-03-31T02:57:44.114Z,76.97
2018-03-31T03:00:11.799Z,77.14
2018-03-31T03:02:39.301Z,77.24
2018-03-31T03:05:06.320Z,77.25
2018-03-31T03:07:33.339Z,77.35
2018-03-31T03:10:00.394Z,77.45
2018-03-31T03:12:27.402Z,77.35
2018-03-31T03:14:54.419Z,77.18
2018-03-31T03:17:21.478Z,77.05
2018-03-31T03:19:48.476Z,77.47
2018-03-31T03:22:15.486Z,77.33
2018-03-31T03:24:42.947Z,77.10
2018-03-31T03:27:09.946Z,77.23
2018-03-31T03:29:36.963Z,77.43
2018-03-31T03:32:04.019Z,77.54
2018-03-31T03:34:31.031Z,77.46
2018-03-31T03:36:58.067Z,77.88
2018-03-31T03:39:25.141Z,77.81
2018-03-31T03:41:52.149Z,77.86
2018-03-31T03:44:19.161Z,78.21
2018-03-31T03:46:46.198Z,78.28
2018-03-31T03:49:13.206Z,77.89
2018-03-31T03:51:40.210Z,77.90
2018-03-31T03:54:07.390Z,78.04
2018-03-31T03:56:34.398Z,78.27
2018-03-31T03:59:01.421Z,78.09
2018-03-31T04:01:28.501Z,78.13
2018-03-31T04:03:55.497Z,78.28
2018-03-31T04:06:22.507Z,78.46
2018-03-31T04:08:49.981Z,78.50
2018-03-31T04:11:16.997Z,78.26
2018-03-31T04:13:44.002Z,78.01
2018-03-31T04:16:11.129Z,78.16
2018-03-31T04:18:38.130Z,78.16
2018-03-31T04:21:05.144Z,78.64
2018-03-31T04:23:32.185Z,78.64
2018-03-31T04:25:59.200Z,78.42
2018-03-31T04:28:26.216Z,78.41
2018-03-31T04:30:53.220Z,78.12
2018-03-31T04:33:20.261Z,78.06
2018-03-31T04:35:47.426Z,77.90
2018-03-31T04:38:14.449Z,77.69
2018-03-31T04:40:41.451Z,77.36
2018-03-31T04:43:08.593Z,77.27
2018-03-31T04:45:35.601Z,76.96
2018-03-31T04:48:02.618Z,76.76
2018-03-31T04:50:29.777Z,76.58
2018-03-31T04:52:56.817Z,76.39
2018-03-31T04:55:23.830Z,75.84
2018-03-31T04:57:50.865Z,75.87
2018-03-31T05:00:17.874Z,75.41
2018-03-31T05:02:44.919Z,75.66
2018-03-31T05:05:12.144Z,75.08
2018-03-31T05:07:39.182Z,74.74
2018-03-31T05:10:06.197Z,74.11
2018-03-31T05:12:33.261Z,73.44
2018-03-31T05:15:00.286Z,72.99
2018-03-31T05:17:27.333Z,72.29
2018-03-31T05:19:54.849Z,71.81
2018-03-31T05:22:21.858Z,71.19
2018-03-31T05:24:48.861Z,70.97
2018-03-31T05:27:15.899Z,70.56
2018-03-31T05:29:42.918Z,70.77
2018-03-31T05:32:09.932Z,70.51
2018-03-31T05:34:37.151Z,70.44
2018-03-31T05:37:04.161Z,70.43
2018-03-31T05:39:31.175Z,69.45
2018-03-31T05:41:58.388Z,69.38
2018-03-31T05:44:25.404Z,69.31
2018-03-31T05:46:52.434Z,69.38
2018-03-31T05:49:19.833Z,70.39
2018-03-31T05:51:46.845Z,70.52
2018-03-31T05:54:13.882Z,70.79
2018-03-31T05:56:41.042Z,71.49
2018-03-31T05:59:08.047Z,71.74
2018-03-31T06:01:35.050Z,72.15
2018-03-31T06:04:02.234Z,72.23
2018-03-31T06:06:29.248Z,72.22
2018-03-31T06:08:56.289Z,72.85
2018-03-31T06:11:23.422Z,73.08
2018-03-31T06:13:50.435Z,72.27
2018-03-31T06:16:17.464Z,72.64
2018-03-31T06:18:44.494Z,71.74
2018-03-31T06:21:11.541Z,72.44
2018-03-31T06:23:38.533Z,71.60
2018-03-31T06:26:05.766Z,71.77
2018-03-31T06:28:32.778Z,71.57
2018-03-31T06:30:59.790Z,71.41
2018-03-31T06:33:26.858Z,71.55
2018-03-31T06:35:53.865Z,71.58
2018-03-31T06:38:20.886Z,71.36
2018-03-31T06:40:47.931Z,70.46
2018-03-31T06:43:14.942Z,70.25
2018-03-31T06:45:41.966Z,69.76
2018-03-31T06:48:09.154Z,68.40
2018-03-31T06:50:36.165Z,66.82
2018-03-31T06:53:03.195Z,65.88
2018-03-31T06:55:30.239Z,64.53
2018-03-31T06:57:57.254Z,63.34
2018-03-31T07:00:24.280Z,63.30
2018-03-31T07:02:51.611Z,62.97
2018-03-31T07:05:18.647Z,63.23
2018-03-31T07:07:45.651Z,63.38
2018-03-31T07:10:12.844Z,64.41
2018-03-31T07:12:39.881Z,65.31
2018-03-31T07:15:06.908Z,65.54
2018-03-31T07:17:34.057Z,65.76
2018-03-31T07:20:01.071Z,65.30
2018-03-31T07:22:28.081Z,65.38
2018-03-31T07:24:55.143Z,64.64
2018-03-31T07:27:22.158Z,64.40
2018-03-31T07:29:49.190Z,64.27
2018-03-31T07:32:16.223Z,64.89
2018-03-31T07:34:43.232Z,65.17
2018-03-31T07:37:10.260Z,64.42
2018-03-31T07:39:37.312Z,64.09
2018-03-31T07:42:04.321Z,62.95
2018-03-31T07:44:31.332Z,63.49
2018-03-31T07:46:58.494Z,62.52
2018-03-31T07:49:25.507Z,62.83
2018-03-31T07:51:52.516Z,62.96
2018-03-31T07:54:19.550Z,61.35
2018-03-31T07:56:46.563Z,60.99
2018-03-31T07:59:13.588Z,60.87
2018-03-31T08:01:40.651Z,59.44
2018-03-31T08:04:07.664Z,59.24
2018-03-31T08:06:34.668Z,59.19
2018-03-31T08:09:01.875Z,57.76
2018-03-31T08:11:28.897Z,57.66
2018-03-31T08:13:55.950Z,57.53
2018-03-31T08:16:23.298Z,56.71
2018-03-31T08:18:50.316Z,55.88
2018-03-31T08:21:17.334Z,56.62
2018-03-31T08:23:44.670Z,55.39
2018-03-31T08:26:11.684Z,55.02
2018-03-31T08:28:38.698Z,54.97
2018-03-31T08:31:05.714Z,54.95
2018-03-31T08:33:32.727Z,54.33
2018-03-31T08:36:00.113Z,52.72
2018-03-31T08:38:27.126Z,52.15
2018-03-31T08:40:54.143Z,52.39
2018-03-31T08:43:21.517Z,51.61
2018-03-31T08:52:30.070Z,52.21
2018-03-31T08:54:57.076Z,50.93
2018-03-31T08:57:24.087Z,50.88
2018-03-31T08:59:51.182Z,52.27
2018-03-31T09:02:18.202Z,50.90
2018-03-31T09:04:45.221Z,50.42
2018-03-31T09:07:12.308Z,49.74
2018-03-31T09:09:39.337Z,50.25
2018-03-31T09:12:06.362Z,51.02
2018-03-31T09:14:33.556Z,51.75
2018-03-31T09:17:00.566Z,52.35
2018-03-31T09:19:27.586Z,52.92
2018-03-31T09:21:54.744Z,51.27
2018-03-31T09:24:21.745Z,51.47
2018-03-31T09:26:48.780Z,51.28
2018-03-31T09:29:15.850Z,50.76
2018-03-31T09:31:42.893Z,50.74
2018-03-31T09:34:09.896Z,50.89
2018-03-31T09:36:37.120Z,51.13
2018-03-31T09:39:04.166Z,50.99
2018-03-31T09:41:31.185Z,49.56
2018-03-31T09:43:58.377Z,48.32
2018-03-31T09:46:25.395Z,47.71
2018-03-31T09:48:52.402Z,48.02
2018-03-31T09:51:19.450Z,48.76
2018-03-31T09:53:46.498Z,47.63
2018-03-31T09:56:13.515Z,47.87
2018-03-31T09:58:40.560Z,47.16
2018-03-31T10:01:07.584Z,47.76
2018-03-31T10:03:34.601Z,48.40
2018-03-31T10:06:01.713Z,47.30
2018-03-31T10:08:28.691Z,47.22
2018-03-31T10:10:55.695Z,45.96
2018-03-31T10:13:22.721Z,45.47
2018-03-31T10:15:49.723Z,44.37
2018-03-31T10:18:16.735Z,45.13
2018-03-31T10:20:43.920Z,44.69
2018-03-31T10:23:10.924Z,44.34
2018-03-31T10:25:37.938Z,42.77
2018-03-31T10:28:05.133Z,42.74
2018-03-31T10:30:32.141Z,42.35
2018-03-31T10:32:59.148Z,41.01
2018-03-31T10:35:26.291Z,39.44
2018-03-31T10:37:53.343Z,40.70
2018-03-31T10:40:20.461Z,37.99
2018-03-31T10:42:47.498Z,38.08
2018-03-31T10:45:14.513Z,38.32
2018-03-31T10:47:41.539Z,37.32
2018-03-31T10:50:08.715Z,34.77
2018-03-31T10:52:35.759Z,34.44
2018-03-31T10:55:02.770Z,32.51
2018-03-31T10:57:29.843Z,32.20
2018-03-31T10:59:56.866Z,32.50
2018-03-31T11:02:23.915Z,30.78
2018-03-31T11:04:51.109Z,31.20
2018-03-31T11:07:18.134Z,32.09
2018-03-31T11:09:45.147Z,31.42
2018-03-31T11:12:12.366Z,30.99
2018-03-31T11:14:39.414Z,28.89
2018-03-31T11:17:06.434Z,28.89
2018-03-31T11:19:33.502Z,28.94
2018-03-31T11:22:00.523Z,28.74
2018-03-31T11:24:27.547Z,28.38
2018-03-31T11:26:54.606Z,27.56
2018-03-31T11:29:21.612Z,27.81
2018-03-31T11:31:48.645Z,28.41
2018-03-31T11:34:15.808Z,26.41
2018-03-31T11:36:43.370Z,26.61
2018-03-31T11:39:10.373Z,26.92
2018-03-31T11:41:37.542Z,26.21
2018-03-31T11:44:04.553Z,26.98
2018-03-31T11:46:31.569Z,27.19
2018-03-31T11:48:58.924Z,27.60
2018-03-31T11:51:25.934Z,26.35
2018-03-31T11:53:52.937Z,27.71
2018-03-31T11:56:20.142Z,27.19
2018-03-31T11:58:47.146Z,27.11
2018-03-31T12:01:14.173Z,27.52
2018-03-31T12:03:41.497Z,27.07
2018-03-31T12:06:08.522Z,27.66
2018-03-31T12:08:35.530Z,27.33
2018-03-31T12:11:02.719Z,27.51
2018-03-31T12:13:29.749Z,27.21
2018-03-31T12:15:56.774Z,27.57
2018-03-31T12:18:23.970Z,26.29
2018-03-31T12:20:50.982Z,26.87
2018-03-31T12:23:17.995Z,27.26
2018-03-31T12:25:45.029Z,27.54
2018-03-31T12:28:12.041Z,28.19
2018-03-31T12:30:39.042Z,27.99
2018-03-31T12:33:06.082Z,27.21
2018-03-31T12:35:33.103Z,27.70
2018-03-31T12:38:00.120Z,27.79
2018-03-31T12:40:27.292Z,27.91
2018-03-31T12:42:54.308Z,27.90
2018-03-31T12:45:21.332Z,28.25
2018-03-31T12:47:48.526Z,28.37
2018-03-31T12:50:15.545Z,28.13
2018-03-31T12:52:42.562Z,29.48
2018-03-31T12:55:09.610Z,28.40
2018-03-31T12:57:36.623Z,28.07
2018-03-31T13:00:03.636Z,27.54
2018-03-31T13:02:30.763Z,27.68
2018-03-31T13:04:57.777Z,28.58
2018-03-31T13:07:24.777Z,28.28
2018-03-31T13:09:51.959Z,29.50
2018-03-31T13:12:18.967Z,27.35
2018-03-31T13:14:46.007Z,27.88
2018-03-31T13:17:13.038Z,28.47
2018-03-31T13:19:40.046Z,28.04
2018-03-31T13:22:07.089Z,27.34
2018-03-31T13:24:34.304Z,27.43
2018-03-31T13:27:01.311Z,27.98
2018-03-31T13:29:28.333Z,27.02
2018-03-31T13:31:55.341Z,27.38
2018-03-31T13:34:22.362Z,27.01
2018-03-31T13:36:49.850Z,27.23
2018-03-31T13:39:16.854Z,27.68
2018-03-31T13:41:43.881Z,27.65
2018-03-31T13:44:10.926Z,28.04
2018-03-31T13:46:37.977Z,27.87
2018-03-31T13:49:04.992Z,27.82
2018-03-31T13:51:32.394Z,28.39
2018-03-31T13:53:59.391Z,28.00
2018-03-31T13:56:26.387Z,28.16
2018-03-31T13:58:53.466Z,27.96
2018-03-31T14:01:20.473Z,27.45
2018-03-31T14:03:47.481Z,28.02
2018-03-31T14:06:14.628Z,28.03
2018-03-31T14:08:41.647Z,28.03
2018-03-31T14:11:08.658Z,28.52
2018-03-31T14:13:35.741Z,27.99
2018-03-31T14:16:02.738Z,28.29
2018-03-31T14:18:29.742Z,27.91
2018-03-31T14:20:56.938Z,28.40
2018-03-31T14:23:23.938Z,28.44
2018-03-31T14:25:50.949Z,28.35
2018-03-31T14:28:18.098Z,28.58
2018-03-31T14:30:45.106Z,28.40
2018-03-31T14:33:12.117Z,29.14
2018-03-31T14:35:39.263Z,29.04
2018-03-31T14:38:06.301Z,29.14
2018-03-31T14:40:33.311Z,29.63
2018-03-31T14:43:01.369Z,30.44
2018-03-31T14:45:28.399Z,30.39
2018-03-31T14:47:55.422Z,30.61
2018-03-31T14:50:22.468Z,30.31
2018-03-31T14:52:49.486Z,31.02
2018-03-31T14:55:16.518Z,30.60
2018-03-31T14:57:43.585Z,31.07
2018-03-31T15:00:10.587Z,30.71
2018-03-31T15:02:37.649Z,31.18
2018-03-31T15:05:04.703Z,31.35
2018-03-31T15:07:31.704Z,30.77
2018-03-31T15:09:58.713Z,31.01
2018-03-31T15:12:25.755Z,30.82
2018-03-31T15:14:52.785Z,31.56
2018-03-31T15:17:19.799Z,31.28
2018-03-31T15:19:46.995Z,31.58
2018-03-31T15:22:14.026Z,32.16
2018-03-31T15:24:41.057Z,32.51
2018-03-31T15:27:08.184Z,32.58
2018-03-31T15:29:35.266Z,33.01
2018-03-31T15:32:02.250Z,32.85
2018-03-31T15:34:29.298Z,33.03
2018-03-31T15:36:56.306Z,32.79
2018-03-31T15:39:23.348Z,33.48
2018-03-31T15:41:50.420Z,33.28
2018-03-31T15:44:17.426Z,33.52
2018-03-31T15:46:44.422Z,33.92
2018-03-31T15:49:11.493Z,33.86
2018-03-31T15:51:38.506Z,33.54
2018-03-31T15:54:05.514Z,33.98
2018-03-31T15:56:32.571Z,33.83
2018-03-31T15:58:59.592Z,33.85
2018-03-31T16:01:26.594Z,34.34
2018-03-31T16:03:53.781Z,34.43
2018-03-31T16:06:20.797Z,34.68
2018-03-31T16:08:47.814Z,34.82
2018-03-31T16:11:15.006Z,34.52
2018-03-31T16:13:42.045Z,34.94
2018-03-31T16:16:09.066Z,34.49
2018-03-31T16:18:36.105Z,34.49
2018-03-31T16:21:03.120Z,34.83
2018-03-31T16:23:30.159Z,34.73
2018-03-31T16:25:57.203Z,34.88
2018-03-31T16:28:24.210Z,34.43
2018-03-31T16:30:51.235Z,35.10
2018-03-31T16:33:18.734Z,34.96
2018-03-31T16:35:45.764Z,34.87
2018-03-31T16:38:12.783Z,35.05
2018-03-31T16:40:39.827Z,35.10
2018-03-31T16:43:06.837Z,35.17
2018-03-31T16:45:33.851Z,35.11
2018-03-31T16:48:00.904Z,34.82
2018-03-31T16:50:27.924Z,34.67
2018-03-31T16:52:54.951Z,34.08
2018-03-31T16:55:22.036Z,34.46
2018-03-31T16:57:49.088Z,34.50
2018-03-31T17:00:16.116Z,34.03
2018-03-31T17:02:43.447Z,34.18
2018-03-31T17:05:10.466Z,34.11
2018-03-31T17:07:37.476Z,34.28
2018-03-31T17:10:04.901Z,34.38
2018-03-31T17:12:31.917Z,34.06
2018-03-31T17:14:58.929Z,34.33
2018-03-31T17:17:26.126Z,34.04
2018-03-31T17:19:53.143Z,33.81
2018-03-31T17:22:20.154Z,33.83
2018-03-31T17:24:47.211Z,33.44
2018-03-31T17:27:14.222Z,33.40
2018-03-31T17:29:41.229Z,33.23
2018-03-31T17:32:08.237Z,33.32
2018-03-31T17:34:35.251Z,32.95
2018-03-31T17:37:02.329Z,33.27
2018-03-31T17:39:29.340Z,33.26
2018-03-31T17:41:56.350Z,33.18
2018-03-31T17:44:23.398Z,32.60
2018-03-31T17:46:50.414Z,32.85
2018-03-31T17:49:17.437Z,32.44
2018-03-31T17:51:44.788Z,32.38
2018-03-31T17:54:11.794Z,32.30
2018-03-31T17:56:38.797Z,32.71
2018-03-31T17:59:05.904Z,32.55
2018-03-31T18:01:32.929Z,32.65
2018-03-31T18:03:59.940Z,32.14
2018-03-31T18:06:27.284Z,32.30
2018-03-31T18:08:54.292Z,32.38
2018-03-31T18:11:21.328Z,33.70
2018-03-31T18:13:48.369Z,35.31
2018-03-31T18:16:15.395Z,33.88
2018-03-31T18:18:42.405Z,33.43
2018-03-31T18:21:09.740Z,42.85
2018-03-31T18:23:36.783Z,46.47
2018-03-31T18:26:03.800Z,45.25
2018-03-31T18:28:30.981Z,43.36
2018-03-31T18:30:57.999Z,41.97
2018-03-31T18:33:25.007Z,36.42
2018-03-31T18:35:52.202Z,35.57
2018-03-31T18:38:19.216Z,38.58
2018-03-31T18:40:46.234Z,41.36
2018-03-31T18:43:13.265Z,40.18
2018-03-31T18:45:40.279Z,37.27
2018-03-31T18:48:07.286Z,35.08
2018-03-31T18:50:34.329Z,39.36
2018-03-31T18:53:01.337Z,38.02
2018-03-31T18:55:28.354Z,40.00
2018-03-31T18:57:55.409Z,36.43
2018-03-31T19:00:22.416Z,37.10
2018-03-31T19:02:49.720Z,37.28
2018-03-31T19:05:16.777Z,37.64
2018-03-31T19:07:43.790Z,45.85
2018-03-31T19:10:10.797Z,46.83
2018-03-31T19:12:37.989Z,42.50
2018-03-31T19:15:05.010Z,43.30
2018-03-31T19:17:32.036Z,47.06
2018-03-31T19:19:59.105Z,45.63
2018-03-31T19:22:26.132Z,49.34
2018-03-31T19:24:58.748Z,49.64
2018-03-31T19:27:25.837Z,51.16
2018-03-31T19:29:52.851Z,50.50
2018-03-31T19:32:19.886Z,52.52
2018-03-31T19:34:46.930Z,51.80
2018-03-31T19:37:13.961Z,46.54
2018-03-31T19:39:46.385Z,52.19
2018-03-31T19:42:13.451Z,54.31
2018-03-31T19:44:40.480Z,54.39
2018-03-31T19:47:07.506Z,55.28
2018-03-31T19:49:34.568Z,55.65
2018-03-31T19:52:01.596Z,56.39
2018-03-31T19:54:28.614Z,57.11
2018-03-31T19:56:55.682Z,57.71
2018-03-31T19:59:22.722Z,57.34
2018-03-31T20:01:49.741Z,57.96
2018-03-31T20:04:16.934Z,55.79
2018-03-31T20:06:43.942Z,55.55
2018-03-31T20:09:10.962Z,54.98
2018-03-31T20:11:38.124Z,54.52
2018-03-31T20:14:05.130Z,53.87
2018-03-31T20:16:32.142Z,54.45
2018-03-31T20:18:59.212Z,54.70
2018-03-31T20:21:26.223Z,54.02
2018-03-31T20:23:53.241Z,49.13
2018-03-31T20:26:20.306Z,47.13
2018-03-31T20:28:47.326Z,50.04
2018-03-31T20:31:14.345Z,51.88
2018-03-31T20:33:41.542Z,53.50
2018-03-31T20:36:08.578Z,53.17
2018-03-31T20:38:35.599Z,54.63
2018-03-31T20:41:02.811Z,53.45
2018-03-31T20:43:29.962Z,52.06
2018-03-31T20:45:56.978Z,54.28
2018-03-31T20:48:24.028Z,50.02
2018-03-31T20:50:51.040Z,48.85
2018-03-31T20:53:18.069Z,43.57
2018-03-31T20:55:45.126Z,41.37
2018-03-31T20:58:12.134Z,45.86
2018-03-31T21:00:39.142Z,41.85
2018-03-31T21:03:06.340Z,42.92
2018-03-31T21:05:33.365Z,43.42
2018-03-31T21:08:00.378Z,39.84
2018-03-31T21:10:27.509Z,38.03
2018-03-31T21:12:54.515Z,39.47
2018-03-31T21:15:21.541Z,40.58
2018-03-31T21:17:48.581Z,43.29
2018-03-31T21:20:15.618Z,45.53
2018-03-31T21:22:42.629Z,44.13
2018-03-31T21:25:09.697Z,45.56
2018-03-31T21:27:36.693Z,46.20
2018-03-31T21:30:03.710Z,46.26
2018-03-31T21:32:30.720Z,47.15
2018-03-31T21:34:57.735Z,47.79
2018-03-31T21:37:24.770Z,48.46
2018-03-31T21:39:51.774Z,49.50
2018-03-31T21:42:18.782Z,49.62
2018-03-31T21:44:46.116Z,50.73
2018-03-31T21:47:13.126Z,51.71
2018-03-31T21:49:40.569Z,52.49
2018-03-31T21:52:07.610Z,53.88
2018-03-31T21:54:34.621Z,52.76
2018-03-31T21:57:01.640Z,53.22
2018-03-31T21:59:28.841Z,53.41
2018-03-31T22:01:55.884Z,53.49
2018-03-31T22:04:22.899Z,54.44
2018-03-31T22:06:50.095Z,54.64
2018-03-31T22:09:17.115Z,55.16
2018-03-31T22:11:44.116Z,55.47
2018-03-31T22:14:16.841Z,56.25
2018-03-31T22:16:43.870Z,56.79
2018-03-31T22:19:10.886Z,56.27
2018-03-31T22:21:38.079Z,56.13
2018-03-31T22:24:05.102Z,56.41
2018-03-31T22:26:32.125Z,56.99
2018-03-31T22:28:59.335Z,57.22
2018-03-31T22:31:26.356Z,57.24
2018-03-31T22:33:53.367Z,57.03
2018-03-31T22:36:20.397Z,57.54
2018-03-31T22:38:47.402Z,57.79
2018-03-31T22:41:14.417Z,58.67
2018-03-31T22:43:41.466Z,58.54
2018-03-31T22:46:08.470Z,58.85
2018-03-31T22:48:35.481Z,58.70
2018-03-31T22:51:02.673Z,58.73
2018-03-31T22:53:29.672Z,59.09
2018-03-31T22:55:56.685Z,58.85
2018-03-31T22:58:23.822Z,59.30
2018-03-31T23:00:50.833Z,60.04
2018-03-31T23:03:17.844Z,59.77
2018-03-31T23:05:44.885Z,59.91
2018-03-31T23:08:11.903Z,59.91
2018-03-31T23:10:38.928Z,59.22
2018-03-31T23:13:06.127Z,59.07
2018-03-31T23:15:33.137Z,53.76
2018-03-31T23:18:00.138Z,51.00
2018-03-31T23:20:27.341Z,50.42
2018-03-31T23:22:54.367Z,41.90
2018-03-31T23:25:21.374Z,41.17
2018-03-31T23:27:48.442Z,40.04
2018-03-31T23:30:15.437Z,38.12
2018-03-31T23:32:42.440Z,37.46
2018-03-31T23:35:09.625Z,37.08
2018-03-31T23:37:36.653Z,37.07
2018-03-31T23:40:03.666Z,37.07
2018-03-31T23:42:30.814Z,36.77
2018-03-31T23:44:57.849Z,36.92
2018-03-31T23:47:24.869Z,36.45
2018-03-31T23:49:52.018Z,35.88
2018-03-31T23:52:19.034Z,35.46
2018-03-31T23:54:46.044Z,35.63
2018-03-31T23:57:13.082Z,36.04
2018-03-31T23:59:40.098Z,36.03
